sensor_id;sensor_type;location;lat;lon;timestamp;P1;durP1;ratioP1;P2;durP2;ratioP2
13014;SDS011;6573;57.696;11.950;2023-09-19T00:00:59;22.63;;;15.13;;
13014;SDS011;6573;57.696;11.950;2023-09-19T00:03:27;21.50;;;14.73;;
13014;SDS011;6573;57.696;11.950;2023-09-19T00:05:58;19.47;;;13.03;;
13014;SDS011;6573;57.696;11.950;2023-09-19T00:08:26;23.13;;;14.10;;
13014;SDS011;6573;57.696;11.950;2023-09-19T00:10:54;22.17;;;16.10;;
13014;SDS011;6573;57.696;11.950;2023-09-19T00:13:25;21.87;;;16.90;;
13014;SDS011;6573;57.696;11.950;2023-09-19T00:15:55;20.13;;;13.43;;
13014;SDS011;6573;57.696;11.950;2023-09-19T00:18:26;21.90;;;14.77;;
13014;SDS011;6573;57.696;11.950;2023-09-19T00:20:58;23.97;;;13.73;;
13014;SDS011;6573;57.696;11.950;2023-09-19T00:23:27;20.07;;;12.87;;
13014;SDS011;6573;57.696;11.950;2023-09-19T00:25:58;19.40;;;13.23;;
13014;SDS011;6573;57.696;11.950;2023-09-19T00:28:30;18.97;;;13.93;;
13014;SDS011;6573;57.696;11.950;2023-09-19T00:30:59;19.63;;;16.60;;
13014;SDS011;6573;57.696;11.950;2023-09-19T00:33:30;18.57;;;15.17;;
13014;SDS011;6573;57.696;11.950;2023-09-19T00:35:58;18.73;;;13.77;;
13014;SDS011;6573;57.696;11.950;2023-09-19T00:38:28;17.47;;;13.23;;
13014;SDS011;6573;57.696;11.950;2023-09-19T00:40:57;18.77;;;16.87;;
13014;SDS011;6573;57.696;11.950;2023-09-19T00:43:26;19.33;;;13.63;;
13014;SDS011;6573;57.696;11.950;2023-09-19T00:45:56;19.87;;;13.97;;
13014;SDS011;6573;57.696;11.950;2023-09-19T00:48:27;19.47;;;16.17;;
13014;SDS011;6573;57.696;11.950;2023-09-19T00:50:57;22.33;;;13.13;;
13014;SDS011;6573;57.696;11.950;2023-09-19T00:53:31;16.73;;;12.90;;
13014;SDS011;6573;57.696;11.950;2023-09-19T00:56:00;15.93;;;12.07;;
13014;SDS011;6573;57.696;11.950;2023-09-19T00:58:30;18.60;;;13.40;;
13014;SDS011;6573;57.696;11.950;2023-09-19T01:01:01;17.93;;;15.37;;
13014;SDS011;6573;57.696;11.950;2023-09-19T01:03:30;17.50;;;13.27;;
13014;SDS011;6573;57.696;11.950;2023-09-19T01:06:00;16.90;;;13.67;;
13014;SDS011;6573;57.696;11.950;2023-09-19T01:08:29;21.43;;;17.03;;
13014;SDS011;6573;57.696;11.950;2023-09-19T01:10:59;19.63;;;15.77;;
13014;SDS011;6573;57.696;11.950;2023-09-19T01:13:31;17.30;;;14.10;;
13014;SDS011;6573;57.696;11.950;2023-09-19T01:16:11;19.23;;;16.80;;
13014;SDS011;6573;57.696;11.950;2023-09-19T01:18:55;20.87;;;17.43;;
13014;SDS011;6573;57.696;11.950;2023-09-19T01:21:37;20.50;;;16.10;;
13014;SDS011;6573;57.696;11.950;2023-09-19T01:30:20;14.50;;;13.00;;
13014;SDS011;6573;57.696;11.950;2023-09-19T01:32:53;15.60;;;13.03;;
13014;SDS011;6573;57.696;11.950;2023-09-19T01:35:24;22.17;;;16.30;;
13014;SDS011;6573;57.696;11.950;2023-09-19T01:37:52;15.23;;;12.80;;
13014;SDS011;6573;57.696;11.950;2023-09-19T01:40:21;19.40;;;12.60;;
13014;SDS011;6573;57.696;11.950;2023-09-19T01:42:53;18.47;;;13.20;;
13014;SDS011;6573;57.696;11.950;2023-09-19T01:45:30;16.80;;;13.00;;
13014;SDS011;6573;57.696;11.950;2023-09-19T01:48:11;17.43;;;15.63;;
13014;SDS011;6573;57.696;11.950;2023-09-19T01:50:52;18.30;;;15.83;;
13014;SDS011;6573;57.696;11.950;2023-09-19T01:53:27;17.20;;;13.73;;
13014;SDS011;6573;57.696;11.950;2023-09-19T01:55:58;16.93;;;13.40;;
13014;SDS011;6573;57.696;11.950;2023-09-19T01:58:29;19.27;;;13.47;;
13014;SDS011;6573;57.696;11.950;2023-09-19T02:01:03;18.97;;;16.30;;
13014;SDS011;6573;57.696;11.950;2023-09-19T02:03:33;17.47;;;13.47;;
13014;SDS011;6573;57.696;11.950;2023-09-19T02:06:04;24.20;;;13.37;;
13014;SDS011;6573;57.696;11.950;2023-09-19T02:08:38;19.40;;;13.60;;
13014;SDS011;6573;57.696;11.950;2023-09-19T02:11:06;15.67;;;13.07;;
13014;SDS011;6573;57.696;11.950;2023-09-19T02:13:34;20.63;;;13.90;;
13014;SDS011;6573;57.696;11.950;2023-09-19T02:16:04;20.07;;;13.20;;
13014;SDS011;6573;57.696;11.950;2023-09-19T02:18:33;18.20;;;12.63;;
13014;SDS011;6573;57.696;11.950;2023-09-19T02:21:02;18.70;;;15.43;;
13014;SDS011;6573;57.696;11.950;2023-09-19T02:23:33;17.97;;;13.30;;
13014;SDS011;6573;57.696;11.950;2023-09-19T02:26:01;20.53;;;12.50;;
13014;SDS011;6573;57.696;11.950;2023-09-19T02:28:30;16.87;;;14.80;;
13014;SDS011;6573;57.696;11.950;2023-09-19T02:30:58;17.33;;;11.90;;
13014;SDS011;6573;57.696;11.950;2023-09-19T02:33:28;16.93;;;14.00;;
13014;SDS011;6573;57.696;11.950;2023-09-19T02:35:59;16.70;;;12.20;;
13014;SDS011;6573;57.696;11.950;2023-09-19T02:38:30;18.90;;;11.50;;
13014;SDS011;6573;57.696;11.950;2023-09-19T02:40:58;16.00;;;10.03;;
13014;SDS011;6573;57.696;11.950;2023-09-19T02:43:27;14.00;;;9.20;;
13014;SDS011;6573;57.696;11.950;2023-09-19T02:45:55;15.20;;;9.37;;
13014;SDS011;6573;57.696;11.950;2023-09-19T02:48:24;12.37;;;8.60;;
13014;SDS011;6573;57.696;11.950;2023-09-19T02:50:54;14.57;;;8.30;;
13014;SDS011;6573;57.696;11.950;2023-09-19T02:53:23;10.83;;;6.53;;
13014;SDS011;6573;57.696;11.950;2023-09-19T02:55:51;10.43;;;6.77;;
13014;SDS011;6573;57.696;11.950;2023-09-19T02:58:20;10.30;;;6.63;;
13014;SDS011;6573;57.696;11.950;2023-09-19T03:00:51;9.23;;;6.30;;
13014;SDS011;6573;57.696;11.950;2023-09-19T03:03:21;8.97;;;5.90;;
13014;SDS011;6573;57.696;11.950;2023-09-19T03:05:50;9.87;;;4.60;;
13014;SDS011;6573;57.696;11.950;2023-09-19T03:08:22;15.10;;;5.83;;
13014;SDS011;6573;57.696;11.950;2023-09-19T03:10:51;13.13;;;6.20;;
13014;SDS011;6573;57.696;11.950;2023-09-19T03:13:19;14.00;;;4.93;;
13014;SDS011;6573;57.696;11.950;2023-09-19T03:15:48;11.53;;;4.50;;
13014;SDS011;6573;57.696;11.950;2023-09-19T03:18:17;10.90;;;4.17;;
13014;SDS011;6573;57.696;11.950;2023-09-19T03:20:52;10.47;;;3.73;;
13014;SDS011;6573;57.696;11.950;2023-09-19T03:23:23;7.53;;;3.27;;
13014;SDS011;6573;57.696;11.950;2023-09-19T03:25:52;13.20;;;4.57;;
13014;SDS011;6573;57.696;11.950;2023-09-19T03:28:21;9.50;;;3.70;;
13014;SDS011;6573;57.696;11.950;2023-09-19T03:30:59;10.27;;;3.87;;
13014;SDS011;6573;57.696;11.950;2023-09-19T03:33:28;11.80;;;3.90;;
13014;SDS011;6573;57.696;11.950;2023-09-19T03:35:58;10.40;;;3.73;;
13014;SDS011;6573;57.696;11.950;2023-09-19T03:38:28;9.07;;;3.80;;
13014;SDS011;6573;57.696;11.950;2023-09-19T03:40:56;8.83;;;3.43;;
13014;SDS011;6573;57.696;11.950;2023-09-19T03:43:25;12.67;;;4.10;;
13014;SDS011;6573;57.696;11.950;2023-09-19T03:45:54;11.50;;;3.37;;
13014;SDS011;6573;57.696;11.950;2023-09-19T03:48:22;12.03;;;3.53;;
13014;SDS011;6573;57.696;11.950;2023-09-19T03:50:51;9.53;;;2.90;;
13014;SDS011;6573;57.696;11.950;2023-09-19T03:53:20;8.77;;;2.53;;
13014;SDS011;6573;57.696;11.950;2023-09-19T03:55:49;11.47;;;3.03;;
13014;SDS011;6573;57.696;11.950;2023-09-19T03:58:17;7.47;;;2.20;;
13014;SDS011;6573;57.696;11.950;2023-09-19T04:00:47;10.07;;;3.00;;
13014;SDS011;6573;57.696;11.950;2023-09-19T04:03:16;12.63;;;3.10;;
13014;SDS011;6573;57.696;11.950;2023-09-19T04:05:47;10.90;;;2.57;;
13014;SDS011;6573;57.696;11.950;2023-09-19T04:08:15;14.93;;;3.10;;
13014;SDS011;6573;57.696;11.950;2023-09-19T04:10:44;14.57;;;2.97;;
13014;SDS011;6573;57.696;11.950;2023-09-19T04:13:14;9.67;;;3.57;;
13014;SDS011;6573;57.696;11.950;2023-09-19T04:15:42;11.10;;;3.47;;
13014;SDS011;6573;57.696;11.950;2023-09-19T04:18:10;14.10;;;3.27;;
13014;SDS011;6573;57.696;11.950;2023-09-19T04:20:38;14.07;;;3.10;;
13014;SDS011;6573;57.696;11.950;2023-09-19T04:23:07;10.13;;;3.23;;
13014;SDS011;6573;57.696;11.950;2023-09-19T04:25:36;10.30;;;2.77;;
13014;SDS011;6573;57.696;11.950;2023-09-19T04:28:04;10.80;;;2.97;;
13014;SDS011;6573;57.696;11.950;2023-09-19T04:30:35;11.70;;;3.20;;
13014;SDS011;6573;57.696;11.950;2023-09-19T04:33:04;10.73;;;3.27;;
13014;SDS011;6573;57.696;11.950;2023-09-19T04:35:33;12.23;;;2.83;;
13014;SDS011;6573;57.696;11.950;2023-09-19T04:38:02;12.63;;;2.87;;
13014;SDS011;6573;57.696;11.950;2023-09-19T04:40:32;12.77;;;2.70;;
13014;SDS011;6573;57.696;11.950;2023-09-19T04:43:00;8.20;;;2.30;;
13014;SDS011;6573;57.696;11.950;2023-09-19T04:45:29;11.23;;;2.57;;
13014;SDS011;6573;57.696;11.950;2023-09-19T04:47:59;9.90;;;2.07;;
13014;SDS011;6573;57.696;11.950;2023-09-19T04:50:27;7.83;;;1.63;;
13014;SDS011;6573;57.696;11.950;2023-09-19T04:52:56;9.17;;;2.33;;
13014;SDS011;6573;57.696;11.950;2023-09-19T04:55:24;6.47;;;1.73;;
13014;SDS011;6573;57.696;11.950;2023-09-19T04:57:53;8.20;;;1.63;;
13014;SDS011;6573;57.696;11.950;2023-09-19T05:00:22;5.90;;;1.33;;
13014;SDS011;6573;57.696;11.950;2023-09-19T05:02:51;6.20;;;1.63;;
13014;SDS011;6573;57.696;11.950;2023-09-19T05:05:22;5.87;;;1.43;;
13014;SDS011;6573;57.696;11.950;2023-09-19T05:07:52;9.97;;;1.90;;
13014;SDS011;6573;57.696;11.950;2023-09-19T05:10:21;5.87;;;1.60;;
13014;SDS011;6573;57.696;11.950;2023-09-19T05:12:52;4.60;;;1.30;;
13014;SDS011;6573;57.696;11.950;2023-09-19T05:15:21;6.73;;;1.30;;
13014;SDS011;6573;57.696;11.950;2023-09-19T05:17:50;4.57;;;1.50;;
13014;SDS011;6573;57.696;11.950;2023-09-19T05:20:25;5.90;;;1.30;;
13014;SDS011;6573;57.696;11.950;2023-09-19T05:22:59;6.23;;;1.37;;
13014;SDS011;6573;57.696;11.950;2023-09-19T05:25:36;7.97;;;1.70;;
13014;SDS011;6573;57.696;11.950;2023-09-19T05:28:05;4.20;;;1.40;;
13014;SDS011;6573;57.696;11.950;2023-09-19T05:30:36;11.67;;;2.83;;
13014;SDS011;6573;57.696;11.950;2023-09-19T05:33:05;10.40;;;2.10;;
13014;SDS011;6573;57.696;11.950;2023-09-19T05:35:35;6.77;;;1.87;;
13014;SDS011;6573;57.696;11.950;2023-09-19T05:38:06;8.00;;;2.00;;
13014;SDS011;6573;57.696;11.950;2023-09-19T05:40:36;8.20;;;1.97;;
13014;SDS011;6573;57.696;11.950;2023-09-19T05:43:05;7.93;;;1.73;;
13014;SDS011;6573;57.696;11.950;2023-09-19T05:45:34;6.43;;;1.90;;
13014;SDS011;6573;57.696;11.950;2023-09-19T05:48:07;6.60;;;1.60;;
13014;SDS011;6573;57.696;11.950;2023-09-19T05:50:39;8.60;;;1.47;;
13014;SDS011;6573;57.696;11.950;2023-09-19T05:53:07;10.13;;;2.00;;
13014;SDS011;6573;57.696;11.950;2023-09-19T05:55:41;12.17;;;1.57;;
13014;SDS011;6573;57.696;11.950;2023-09-19T05:58:10;8.63;;;1.60;;
13014;SDS011;6573;57.696;11.950;2023-09-19T06:00:41;5.23;;;1.93;;
13014;SDS011;6573;57.696;11.950;2023-09-19T06:03:11;9.20;;;1.60;;
13014;SDS011;6573;57.696;11.950;2023-09-19T06:05:42;5.83;;;1.50;;
13014;SDS011;6573;57.696;11.950;2023-09-19T06:08:10;5.63;;;1.13;;
13014;SDS011;6573;57.696;11.950;2023-09-19T06:10:38;5.37;;;1.50;;
13014;SDS011;6573;57.696;11.950;2023-09-19T06:13:06;5.93;;;1.60;;
13014;SDS011;6573;57.696;11.950;2023-09-19T06:15:36;4.23;;;1.57;;
13014;SDS011;6573;57.696;11.950;2023-09-19T06:18:10;6.90;;;1.27;;
13014;SDS011;6573;57.696;11.950;2023-09-19T06:20:43;6.20;;;1.27;;
13014;SDS011;6573;57.696;11.950;2023-09-19T06:23:11;9.97;;;1.73;;
13014;SDS011;6573;57.696;11.950;2023-09-19T06:25:40;5.00;;;1.20;;
13014;SDS011;6573;57.696;11.950;2023-09-19T06:28:10;2.77;;;1.07;;
13014;SDS011;6573;57.696;11.950;2023-09-19T06:30:39;3.10;;;1.00;;
13014;SDS011;6573;57.696;11.950;2023-09-19T06:33:08;4.93;;;1.20;;
13014;SDS011;6573;57.696;11.950;2023-09-19T06:35:38;6.07;;;1.50;;
13014;SDS011;6573;57.696;11.950;2023-09-19T06:38:10;8.30;;;1.50;;
13014;SDS011;6573;57.696;11.950;2023-09-19T06:40:39;4.73;;;1.33;;
13014;SDS011;6573;57.696;11.950;2023-09-19T06:43:09;7.30;;;1.70;;
13014;SDS011;6573;57.696;11.950;2023-09-19T06:45:38;8.33;;;1.50;;
13014;SDS011;6573;57.696;11.950;2023-09-19T06:48:06;7.87;;;1.80;;
13014;SDS011;6573;57.696;11.950;2023-09-19T06:50:36;5.30;;;1.50;;
13014;SDS011;6573;57.696;11.950;2023-09-19T06:53:05;5.70;;;1.50;;
13014;SDS011;6573;57.696;11.950;2023-09-19T06:55:34;5.60;;;1.80;;
13014;SDS011;6573;57.696;11.950;2023-09-19T06:58:03;5.00;;;1.70;;
13014;SDS011;6573;57.696;11.950;2023-09-19T07:00:32;5.07;;;1.40;;
13014;SDS011;6573;57.696;11.950;2023-09-19T07:03:03;12.20;;;2.13;;
13014;SDS011;6573;57.696;11.950;2023-09-19T07:05:35;9.77;;;2.20;;
13014;SDS011;6573;57.696;11.950;2023-09-19T07:08:06;5.30;;;1.87;;
13014;SDS011;6573;57.696;11.950;2023-09-19T07:10:37;8.07;;;2.60;;
13014;SDS011;6573;57.696;11.950;2023-09-19T07:13:07;7.77;;;1.63;;
13014;SDS011;6573;57.696;11.950;2023-09-19T07:15:37;7.87;;;1.93;;
13014;SDS011;6573;57.696;11.950;2023-09-19T07:18:13;8.83;;;1.97;;
13014;SDS011;6573;57.696;11.950;2023-09-19T07:20:43;9.37;;;2.00;;
13014;SDS011;6573;57.696;11.950;2023-09-19T07:23:16;6.00;;;1.77;;
13014;SDS011;6573;57.696;11.950;2023-09-19T07:25:46;7.80;;;1.83;;
13014;SDS011;6573;57.696;11.950;2023-09-19T07:28:15;10.40;;;2.30;;
13014;SDS011;6573;57.696;11.950;2023-09-19T07:30:44;8.63;;;1.43;;
13014;SDS011;6573;57.696;11.950;2023-09-19T07:33:12;8.17;;;1.83;;
13014;SDS011;6573;57.696;11.950;2023-09-19T07:35:40;10.57;;;2.10;;
13014;SDS011;6573;57.696;11.950;2023-09-19T07:38:12;6.93;;;1.87;;
13014;SDS011;6573;57.696;11.950;2023-09-19T07:40:40;8.43;;;2.10;;
13014;SDS011;6573;57.696;11.950;2023-09-19T07:43:10;7.50;;;1.60;;
13014;SDS011;6573;57.696;11.950;2023-09-19T07:45:38;7.77;;;1.47;;
13014;SDS011;6573;57.696;11.950;2023-09-19T07:48:06;8.10;;;1.57;;
13014;SDS011;6573;57.696;11.950;2023-09-19T07:50:41;2.80;;;1.13;;
13014;SDS011;6573;57.696;11.950;2023-09-19T07:53:11;8.00;;;1.80;;
13014;SDS011;6573;57.696;11.950;2023-09-19T07:55:40;5.87;;;1.77;;
13014;SDS011;6573;57.696;11.950;2023-09-19T07:58:10;7.77;;;1.70;;
13014;SDS011;6573;57.696;11.950;2023-09-19T08:00:39;7.57;;;1.83;;
13014;SDS011;6573;57.696;11.950;2023-09-19T08:03:08;12.20;;;2.37;;
13014;SDS011;6573;57.696;11.950;2023-09-19T08:05:43;6.73;;;2.50;;
13014;SDS011;6573;57.696;11.950;2023-09-19T08:08:12;7.10;;;1.87;;
13014;SDS011;6573;57.696;11.950;2023-09-19T08:10:42;9.23;;;2.07;;
13014;SDS011;6573;57.696;11.950;2023-09-19T08:13:14;7.93;;;2.27;;
13014;SDS011;6573;57.696;11.950;2023-09-19T08:15:44;7.97;;;2.00;;
13014;SDS011;6573;57.696;11.950;2023-09-19T08:18:13;9.97;;;2.43;;
13014;SDS011;6573;57.696;11.950;2023-09-19T08:20:42;11.33;;;2.77;;
13014;SDS011;6573;57.696;11.950;2023-09-19T08:23:13;8.67;;;1.87;;
13014;SDS011;6573;57.696;11.950;2023-09-19T08:25:41;10.97;;;2.47;;
13014;SDS011;6573;57.696;11.950;2023-09-19T08:28:09;7.47;;;1.80;;
13014;SDS011;6573;57.696;11.950;2023-09-19T08:30:40;8.03;;;2.00;;
13014;SDS011;6573;57.696;11.950;2023-09-19T08:33:08;9.87;;;2.57;;
13014;SDS011;6573;57.696;11.950;2023-09-19T08:35:37;7.17;;;2.00;;
13014;SDS011;6573;57.696;11.950;2023-09-19T08:38:06;6.70;;;1.70;;
13014;SDS011;6573;57.696;11.950;2023-09-19T08:40:36;7.20;;;1.90;;
13014;SDS011;6573;57.696;11.950;2023-09-19T08:43:06;9.80;;;2.40;;
13014;SDS011;6573;57.696;11.950;2023-09-19T08:45:35;6.60;;;1.80;;
13014;SDS011;6573;57.696;11.950;2023-09-19T08:48:16;7.30;;;2.07;;
13014;SDS011;6573;57.696;11.950;2023-09-19T08:50:49;10.87;;;2.10;;
13014;SDS011;6573;57.696;11.950;2023-09-19T08:53:21;11.73;;;2.50;;
13014;SDS011;6573;57.696;11.950;2023-09-19T08:55:59;6.77;;;2.20;;
13014;SDS011;6573;57.696;11.950;2023-09-19T08:58:31;6.40;;;2.00;;
13014;SDS011;6573;57.696;11.950;2023-09-19T09:01:03;9.43;;;1.90;;
13014;SDS011;6573;57.696;11.950;2023-09-19T09:03:34;7.57;;;2.03;;
13014;SDS011;6573;57.696;11.950;2023-09-19T09:06:04;6.20;;;1.87;;
13014;SDS011;6573;57.696;11.950;2023-09-19T09:08:34;8.13;;;1.93;;
13014;SDS011;6573;57.696;11.950;2023-09-19T09:11:03;7.03;;;1.53;;
13014;SDS011;6573;57.696;11.950;2023-09-19T09:13:34;6.13;;;1.87;;
13014;SDS011;6573;57.696;11.950;2023-09-19T09:16:04;6.43;;;1.90;;
13014;SDS011;6573;57.696;11.950;2023-09-19T09:18:32;6.43;;;1.70;;
13014;SDS011;6573;57.696;11.950;2023-09-19T09:21:02;7.47;;;1.40;;
13014;SDS011;6573;57.696;11.950;2023-09-19T09:23:31;6.03;;;1.70;;
13014;SDS011;6573;57.696;11.950;2023-09-19T09:26:00;5.23;;;1.40;;
13014;SDS011;6573;57.696;11.950;2023-09-19T09:28:32;7.07;;;1.60;;
13014;SDS011;6573;57.696;11.950;2023-09-19T09:31:01;6.37;;;1.60;;
13014;SDS011;6573;57.696;11.950;2023-09-19T09:33:36;6.60;;;1.40;;
13014;SDS011;6573;57.696;11.950;2023-09-19T09:36:05;7.03;;;1.87;;
13014;SDS011;6573;57.696;11.950;2023-09-19T09:38:42;5.87;;;1.77;;
13014;SDS011;6573;57.696;11.950;2023-09-19T09:41:12;6.27;;;1.70;;
13014;SDS011;6573;57.696;11.950;2023-09-19T09:43:53;18.63;;;2.87;;
13014;SDS011;6573;57.696;11.950;2023-09-19T09:46:22;5.17;;;1.83;;
13014;SDS011;6573;57.696;11.950;2023-09-19T09:49:10;6.47;;;1.67;;
13014;SDS011;6573;57.696;11.950;2023-09-19T09:51:48;6.00;;;1.40;;
13014;SDS011;6573;57.696;11.950;2023-09-19T09:54:27;3.00;;;1.27;;
13014;SDS011;6573;57.696;11.950;2023-09-19T09:57:03;7.30;;;1.57;;
13014;SDS011;6573;57.696;11.950;2023-09-19T09:59:45;5.67;;;1.20;;
13014;SDS011;6573;57.696;11.950;2023-09-19T10:02:14;3.73;;;1.50;;
13014;SDS011;6573;57.696;11.950;2023-09-19T10:04:48;8.83;;;2.03;;
13014;SDS011;6573;57.696;11.950;2023-09-19T10:07:26;7.73;;;1.93;;
13014;SDS011;6573;57.696;11.950;2023-09-19T10:10:00;6.97;;;1.60;;
13014;SDS011;6573;57.696;11.950;2023-09-19T10:12:42;5.33;;;1.90;;
13014;SDS011;6573;57.696;11.950;2023-09-19T10:15:12;13.60;;;2.20;;
13014;SDS011;6573;57.696;11.950;2023-09-19T10:17:44;4.37;;;1.27;;
13014;SDS011;6573;57.696;11.950;2023-09-19T10:20:14;4.17;;;1.70;;
13014;SDS011;6573;57.696;11.950;2023-09-19T10:23:00;6.40;;;1.50;;
13014;SDS011;6573;57.696;11.950;2023-09-19T10:25:36;5.77;;;1.20;;
13014;SDS011;6573;57.696;11.950;2023-09-19T10:28:06;5.93;;;1.40;;
13014;SDS011;6573;57.696;11.950;2023-09-19T10:30:40;4.13;;;1.27;;
13014;SDS011;6573;57.696;11.950;2023-09-19T10:33:12;5.10;;;1.17;;
13014;SDS011;6573;57.696;11.950;2023-09-19T10:35:43;7.13;;;1.37;;
13014;SDS011;6573;57.696;11.950;2023-09-19T10:38:13;6.40;;;1.43;;
13014;SDS011;6573;57.696;11.950;2023-09-19T10:40:48;4.77;;;1.20;;
13014;SDS011;6573;57.696;11.950;2023-09-19T10:43:17;6.37;;;1.20;;
13014;SDS011;6573;57.696;11.950;2023-09-19T10:45:49;6.37;;;1.60;;
13014;SDS011;6573;57.696;11.950;2023-09-19T10:48:20;4.50;;;1.13;;
13014;SDS011;6573;57.696;11.950;2023-09-19T10:50:57;6.93;;;1.50;;
13014;SDS011;6573;57.696;11.950;2023-09-19T10:53:40;6.73;;;1.50;;
13014;SDS011;6573;57.696;11.950;2023-09-19T10:56:16;5.77;;;1.50;;
13014;SDS011;6573;57.696;11.950;2023-09-19T10:58:49;4.67;;;1.20;;
13014;SDS011;6573;57.696;11.950;2023-09-19T11:01:18;6.80;;;1.50;;
13014;SDS011;6573;57.696;11.950;2023-09-19T11:03:48;5.40;;;1.10;;
13014;SDS011;6573;57.696;11.950;2023-09-19T11:06:38;7.67;;;1.60;;
13014;SDS011;6573;57.696;11.950;2023-09-19T11:09:08;5.03;;;1.73;;
13014;SDS011;6573;57.696;11.950;2023-09-19T11:11:49;7.33;;;1.53;;
13014;SDS011;6573;57.696;11.950;2023-09-19T11:14:29;14.57;;;2.10;;
13014;SDS011;6573;57.696;11.950;2023-09-19T11:23:19;10.00;;;1.70;;
13014;SDS011;6573;57.696;11.950;2023-09-19T11:25:51;9.60;;;1.90;;
13014;SDS011;6573;57.696;11.950;2023-09-19T11:28:33;8.10;;;1.30;;
13014;SDS011;6573;57.696;11.950;2023-09-19T11:40:35;4.43;;;1.17;;
13014;SDS011;6573;57.696;11.950;2023-09-19T11:46:05;3.13;;;1.23;;
13014;SDS011;6573;57.696;11.950;2023-09-19T11:48:40;5.33;;;1.13;;
13014;SDS011;6573;57.696;11.950;2023-09-19T11:51:14;4.37;;;1.20;;
13014;SDS011;6573;57.696;11.950;2023-09-19T11:53:49;6.43;;;1.13;;
13014;SDS011;6573;57.696;11.950;2023-09-19T11:56:20;3.57;;;1.20;;
13014;SDS011;6573;57.696;11.950;2023-09-19T11:58:53;4.20;;;1.30;;
13014;SDS011;6573;57.696;11.950;2023-09-19T12:01:23;3.37;;;1.30;;
13014;SDS011;6573;57.696;11.950;2023-09-19T12:03:57;4.93;;;1.20;;
13014;SDS011;6573;57.696;11.950;2023-09-19T12:06:26;5.43;;;1.40;;
13014;SDS011;6573;57.696;11.950;2023-09-19T12:08:58;5.43;;;1.20;;
13014;SDS011;6573;57.696;11.950;2023-09-19T12:11:34;5.53;;;1.30;;
13014;SDS011;6573;57.696;11.950;2023-09-19T12:14:10;4.43;;;1.40;;
13014;SDS011;6573;57.696;11.950;2023-09-19T12:16:40;6.60;;;1.40;;
13014;SDS011;6573;57.696;11.950;2023-09-19T12:19:22;7.70;;;1.50;;
13014;SDS011;6573;57.696;11.950;2023-09-19T12:21:54;6.37;;;1.30;;
13014;SDS011;6573;57.696;11.950;2023-09-19T12:24:25;7.00;;;1.37;;
13014;SDS011;6573;57.696;11.950;2023-09-19T12:27:01;5.00;;;0.90;;
13014;SDS011;6573;57.696;11.950;2023-09-19T12:29:41;6.87;;;1.10;;
13014;SDS011;6573;57.696;11.950;2023-09-19T12:32:11;7.87;;;1.70;;
13014;SDS011;6573;57.696;11.950;2023-09-19T12:34:41;9.70;;;1.53;;
13014;SDS011;6573;57.696;11.950;2023-09-19T12:37:10;8.83;;;1.60;;
13014;SDS011;6573;57.696;11.950;2023-09-19T12:39:39;1.97;;;0.67;;
13014;SDS011;6573;57.696;11.950;2023-09-19T12:42:10;6.70;;;1.20;;
13014;SDS011;6573;57.696;11.950;2023-09-19T12:44:41;11.20;;;1.63;;
13014;SDS011;6573;57.696;11.950;2023-09-19T12:47:11;5.67;;;1.30;;
13014;SDS011;6573;57.696;11.950;2023-09-19T12:52:44;4.50;;;1.10;;
13014;SDS011;6573;57.696;11.950;2023-09-19T12:55:22;5.80;;;1.30;;
13014;SDS011;6573;57.696;11.950;2023-09-19T12:58:08;7.80;;;1.83;;
13014;SDS011;6573;57.696;11.950;2023-09-19T13:00:39;7.60;;;1.70;;
13014;SDS011;6573;57.696;11.950;2023-09-19T13:03:12;4.87;;;1.40;;
13014;SDS011;6573;57.696;11.950;2023-09-19T13:05:49;7.40;;;1.67;;
13014;SDS011;6573;57.696;11.950;2023-09-19T13:08:21;5.87;;;1.40;;
13014;SDS011;6573;57.696;11.950;2023-09-19T13:11:02;5.97;;;1.30;;
13014;SDS011;6573;57.696;11.950;2023-09-19T13:13:35;8.87;;;1.67;;
13014;SDS011;6573;57.696;11.950;2023-09-19T13:16:04;4.53;;;1.20;;
13014;SDS011;6573;57.696;11.950;2023-09-19T13:18:43;8.77;;;1.40;;
13014;SDS011;6573;57.696;11.950;2023-09-19T13:21:17;5.17;;;1.20;;
13014;SDS011;6573;57.696;11.950;2023-09-19T13:23:56;8.73;;;1.30;;
13014;SDS011;6573;57.696;11.950;2023-09-19T13:26:47;6.63;;;1.30;;
13014;SDS011;6573;57.696;11.950;2023-09-19T13:29:17;5.37;;;1.17;;
13014;SDS011;6573;57.696;11.950;2023-09-19T13:31:46;6.03;;;1.40;;
13014;SDS011;6573;57.696;11.950;2023-09-19T13:34:15;5.60;;;1.10;;
13014;SDS011;6573;57.696;11.950;2023-09-19T13:36:44;5.63;;;1.40;;
13014;SDS011;6573;57.696;11.950;2023-09-19T13:39:15;2.57;;;1.30;;
13014;SDS011;6573;57.696;11.950;2023-09-19T13:41:44;4.40;;;0.93;;
13014;SDS011;6573;57.696;11.950;2023-09-19T13:44:13;4.67;;;1.17;;
13014;SDS011;6573;57.696;11.950;2023-09-19T13:46:44;4.73;;;1.17;;
13014;SDS011;6573;57.696;11.950;2023-09-19T13:49:14;4.80;;;1.40;;
13014;SDS011;6573;57.696;11.950;2023-09-19T13:51:42;6.20;;;1.50;;
13014;SDS011;6573;57.696;11.950;2023-09-19T13:54:11;2.40;;;1.07;;
13014;SDS011;6573;57.696;11.950;2023-09-19T13:56:41;3.43;;;0.90;;
13014;SDS011;6573;57.696;11.950;2023-09-19T13:59:09;5.67;;;0.93;;
13014;SDS011;6573;57.696;11.950;2023-09-19T14:01:37;6.73;;;1.10;;
13014;SDS011;6573;57.696;11.950;2023-09-19T14:04:07;2.53;;;1.00;;
13014;SDS011;6573;57.696;11.950;2023-09-19T14:06:37;6.20;;;1.53;;
13014;SDS011;6573;57.696;11.950;2023-09-19T14:09:05;5.43;;;1.10;;
13014;SDS011;6573;57.696;11.950;2023-09-19T14:11:34;4.70;;;1.10;;
13014;SDS011;6573;57.696;11.950;2023-09-19T14:14:02;3.63;;;1.20;;
13014;SDS011;6573;57.696;11.950;2023-09-19T14:16:31;9.60;;;1.63;;
13014;SDS011;6573;57.696;11.950;2023-09-19T14:19:00;5.40;;;1.10;;
13014;SDS011;6573;57.696;11.950;2023-09-19T14:21:29;9.00;;;1.43;;
13014;SDS011;6573;57.696;11.950;2023-09-19T14:23:58;6.00;;;1.47;;
13014;SDS011;6573;57.696;11.950;2023-09-19T14:26:26;7.60;;;1.70;;
13014;SDS011;6573;57.696;11.950;2023-09-19T14:28:54;7.00;;;1.40;;
13014;SDS011;6573;57.696;11.950;2023-09-19T14:31:24;7.13;;;1.97;;
13014;SDS011;6573;57.696;11.950;2023-09-19T14:33:54;5.47;;;1.17;;
13014;SDS011;6573;57.696;11.950;2023-09-19T14:36:23;8.03;;;1.63;;
13014;SDS011;6573;57.696;11.950;2023-09-19T14:38:54;6.27;;;1.20;;
13014;SDS011;6573;57.696;11.950;2023-09-19T14:41:24;5.83;;;1.07;;
13014;SDS011;6573;57.696;11.950;2023-09-19T14:43:52;4.60;;;1.40;;
13014;SDS011;6573;57.696;11.950;2023-09-19T14:46:22;5.07;;;1.13;;
13014;SDS011;6573;57.696;11.950;2023-09-19T14:48:51;5.37;;;1.43;;
13014;SDS011;6573;57.696;11.950;2023-09-19T14:51:19;6.53;;;1.30;;
13014;SDS011;6573;57.696;11.950;2023-09-19T14:53:48;10.03;;;1.40;;
13014;SDS011;6573;57.696;11.950;2023-09-19T14:56:18;5.90;;;1.40;;
13014;SDS011;6573;57.696;11.950;2023-09-19T14:58:46;8.00;;;1.50;;
13014;SDS011;6573;57.696;11.950;2023-09-19T15:01:15;11.90;;;1.57;;
13014;SDS011;6573;57.696;11.950;2023-09-19T15:03:43;7.17;;;1.60;;
13014;SDS011;6573;57.696;11.950;2023-09-19T15:06:13;12.10;;;1.87;;
13014;SDS011;6573;57.696;11.950;2023-09-19T15:08:44;8.40;;;1.30;;
13014;SDS011;6573;57.696;11.950;2023-09-19T15:11:14;4.10;;;1.30;;
13014;SDS011;6573;57.696;11.950;2023-09-19T15:13:46;9.53;;;1.33;;
13014;SDS011;6573;57.696;11.950;2023-09-19T15:16:15;7.20;;;1.50;;
13014;SDS011;6573;57.696;11.950;2023-09-19T15:18:44;8.97;;;1.57;;
13014;SDS011;6573;57.696;11.950;2023-09-19T15:21:15;8.77;;;1.47;;
13014;SDS011;6573;57.696;11.950;2023-09-19T15:23:43;7.70;;;1.70;;
13014;SDS011;6573;57.696;11.950;2023-09-19T15:26:13;11.13;;;1.60;;
13014;SDS011;6573;57.696;11.950;2023-09-19T15:28:49;6.40;;;1.40;;
13014;SDS011;6573;57.696;11.950;2023-09-19T15:31:17;4.70;;;1.20;;